createdAt,value
2023-06-28T00:00:04.449Z,3.23
2023-06-28T00:03:11.202Z,3.43
2023-06-28T00:06:14.038Z,4.53
2023-06-28T00:09:16.742Z,3.97
2023-06-28T00:12:22.364Z,5.00
2023-06-28T00:15:25.120Z,4.20
2023-06-28T00:18:31.474Z,4.00
2023-06-28T00:21:34.508Z,11.03
2023-06-28T00:24:37.240Z,3.83
2023-06-28T00:27:41.549Z,4.30
2023-06-28T00:30:44.480Z,6.93
2023-06-28T00:33:47.774Z,7.60
2023-06-28T00:36:51.537Z,4.43
2023-06-28T00:39:55.972Z,3.00
2023-06-28T00:43:00.040Z,4.97
2023-06-28T00:46:03.390Z,3.87
2023-06-28T00:49:13.878Z,3.83
2023-06-28T00:52:16.584Z,3.10
2023-06-28T00:55:22.199Z,5.33
2023-06-28T00:58:26.756Z,5.37
2023-06-28T01:01:30.032Z,4.10
2023-06-28T01:04:41.604Z,9.20
2023-06-28T01:07:46.017Z,4.73
2023-06-28T01:10:50.429Z,3.50
2023-06-28T01:13:54.742Z,3.17
2023-06-28T01:16:57.550Z,3.83
2023-06-28T01:20:01.066Z,3.87
2023-06-28T01:23:06.514Z,4.03
2023-06-28T01:26:10.313Z,6.57
2023-06-28T01:29:13.275Z,4.43
2023-06-28T01:32:18.311Z,3.87
2023-06-28T01:35:21.036Z,4.83
2023-06-28T01:38:27.154Z,6.43
2023-06-28T01:41:30.287Z,5.07
2023-06-28T01:44:34.660Z,7.67
2023-06-28T01:47:37.741Z,4.13
2023-06-28T01:50:40.995Z,5.97
2023-06-28T01:53:45.302Z,5.33
2023-06-28T01:56:48.099Z,4.13
2023-06-28T01:59:50.842Z,6.80
2023-06-28T02:02:54.761Z,4.40
2023-06-28T02:05:57.824Z,4.00
2023-06-28T02:09:02.152Z,6.97
2023-06-28T02:12:05.352Z,5.00
2023-06-28T02:15:09.322Z,3.77
2023-06-28T02:18:12.001Z,4.53
2023-06-28T02:21:15.457Z,6.47
2023-06-28T02:24:21.311Z,5.70
2023-06-28T02:27:24.026Z,3.83
2023-06-28T02:30:26.842Z,3.93
2023-06-28T02:33:29.562Z,3.77
2023-06-28T02:36:32.814Z,5.07
2023-06-28T02:39:36.891Z,5.27
2023-06-28T02:42:39.608Z,4.77
2023-06-28T02:45:42.304Z,5.90
2023-06-28T02:48:45.044Z,4.30
2023-06-28T02:51:47.742Z,4.80
2023-06-28T02:54:51.799Z,5.80
2023-06-28T02:57:55.503Z,4.60
2023-06-28T03:00:58.646Z,3.93
2023-06-28T03:04:01.669Z,7.13
2023-06-28T03:07:04.819Z,4.60
2023-06-28T03:10:10.067Z,4.13
2023-06-28T03:13:12.811Z,3.80
2023-06-28T03:16:16.784Z,5.20
2023-06-28T03:19:19.493Z,5.77
2023-06-28T03:22:28.379Z,4.43
2023-06-28T03:25:32.632Z,6.70
2023-06-28T03:28:35.533Z,7.23
2023-06-28T03:31:38.303Z,4.37
2023-06-28T03:34:41.035Z,5.07
2023-06-28T03:37:50.975Z,4.47
2023-06-28T03:40:57.591Z,5.30
2023-06-28T03:44:00.276Z,4.77
2023-06-28T03:47:07.623Z,4.90
2023-06-28T03:50:11.058Z,6.03
2023-06-28T03:53:13.753Z,4.73
2023-06-28T03:56:17.962Z,5.13
2023-06-28T03:59:21.632Z,6.20
2023-06-28T04:02:24.331Z,5.97
2023-06-28T04:05:27.274Z,6.10
2023-06-28T04:08:29.990Z,5.53
2023-06-28T04:11:33.977Z,4.20
2023-06-28T04:14:36.924Z,6.57
2023-06-28T04:17:39.697Z,5.90
2023-06-28T04:20:43.350Z,4.07
2023-06-28T04:23:46.547Z,8.03
2023-06-28T04:26:50.586Z,6.17
2023-06-28T04:29:53.297Z,4.53
2023-06-28T04:32:55.972Z,4.27
2023-06-28T04:36:02.786Z,7.03
2023-06-28T04:39:05.524Z,5.07
2023-06-28T04:42:09.667Z,5.60
2023-06-28T04:45:12.674Z,5.90
2023-06-28T04:48:15.382Z,5.07
2023-06-28T04:51:18.672Z,7.30
2023-06-28T04:54:21.372Z,10.70
2023-06-28T04:57:25.685Z,5.33
2023-06-28T05:00:28.645Z,6.63
2023-06-28T05:03:33.584Z,5.50
2023-06-28T05:06:37.208Z,5.80
2023-06-28T05:09:40.677Z,8.50
2023-06-28T05:12:44.711Z,10.47
2023-06-28T05:15:47.985Z,4.33
2023-06-28T05:18:50.724Z,9.27
2023-06-28T05:21:55.158Z,8.97
2023-06-28T05:24:57.955Z,6.63
2023-06-28T05:28:01.996Z,7.17
2023-06-28T05:31:04.769Z,7.13
2023-06-28T05:34:07.559Z,8.77
2023-06-28T05:37:10.266Z,7.80
2023-06-28T05:40:14.106Z,6.40
2023-06-28T05:43:18.122Z,6.77
2023-06-28T05:46:20.876Z,6.23
2023-06-28T05:49:26.461Z,7.67
2023-06-28T05:52:29.187Z,8.23
2023-06-28T05:55:32.067Z,10.17
2023-06-28T05:58:36.515Z,5.67
2023-06-28T06:01:39.274Z,7.47
2023-06-28T06:04:41.998Z,7.97
2023-06-28T06:07:44.742Z,5.80
2023-06-28T06:10:47.475Z,5.57
2023-06-28T06:13:51.569Z,7.33
2023-06-28T06:16:55.557Z,5.57
2023-06-28T06:19:58.295Z,4.90
2023-06-28T06:23:01.044Z,5.53
2023-06-28T06:26:03.864Z,4.80
2023-06-28T06:29:08.263Z,5.17
2023-06-28T06:32:11.754Z,6.40
2023-06-28T06:35:15.762Z,6.67
2023-06-28T06:38:18.516Z,8.10
2023-06-28T06:41:25.047Z,5.23
2023-06-28T06:44:32.265Z,5.20
2023-06-28T06:47:36.831Z,6.60
2023-06-28T06:50:39.779Z,5.40
2023-06-28T06:53:42.724Z,11.50
2023-06-28T06:56:45.405Z,6.87
2023-06-28T06:59:49.431Z,5.40
2023-06-28T07:02:52.301Z,4.70
2023-06-28T07:05:55.036Z,5.30
2023-06-28T07:08:59.008Z,9.13
2023-06-28T07:12:01.750Z,7.23
2023-06-28T07:15:06.969Z,6.03
2023-06-28T07:18:09.665Z,6.80
2023-06-28T07:21:15.912Z,5.33
2023-06-28T07:24:18.595Z,6.03
2023-06-28T07:27:24.302Z,7.17
2023-06-28T07:30:32.098Z,6.03
2023-06-28T07:33:35.431Z,10.10
2023-06-28T07:36:38.188Z,7.70
2023-06-28T07:39:40.966Z,5.37
2023-06-28T07:42:43.843Z,3.80
2023-06-28T07:45:48.331Z,5.27
2023-06-28T07:48:51.907Z,6.30
2023-06-28T07:51:54.670Z,4.67
2023-06-28T07:54:57.351Z,5.90
2023-06-28T07:58:00.217Z,5.93
2023-06-28T08:01:08.227Z,4.57
2023-06-28T08:04:13.367Z,5.43
2023-06-28T08:07:16.704Z,3.73
2023-06-28T08:10:19.458Z,8.83
2023-06-28T08:13:24.903Z,5.80
2023-06-28T08:16:29.093Z,4.10
2023-06-28T08:19:31.834Z,6.93
2023-06-28T08:22:35.282Z,4.80
2023-06-28T08:25:38.134Z,5.20
2023-06-28T08:28:54.469Z,3.20
2023-06-28T08:32:03.269Z,3.10
2023-06-28T08:35:09.538Z,5.57
2023-06-28T08:38:12.760Z,6.00
2023-06-28T08:41:18.484Z,9.67
2023-06-28T08:44:24.862Z,3.30
2023-06-28T08:47:31.878Z,4.33
2023-06-28T08:50:35.190Z,4.40
2023-06-28T08:53:45.152Z,5.07
2023-06-28T08:57:05.123Z,8.17
2023-06-28T09:00:14.789Z,5.97
2023-06-28T09:03:20.090Z,6.20
2023-06-28T09:06:23.779Z,4.70
2023-06-28T09:09:29.710Z,5.40
2023-06-28T09:12:33.348Z,3.10
2023-06-28T09:15:39.117Z,3.07
2023-06-28T09:18:43.291Z,4.10
2023-06-28T09:21:46.852Z,5.13
2023-06-28T09:24:51.191Z,2.77
2023-06-28T09:27:54.867Z,7.40
2023-06-28T09:30:58.597Z,3.70
2023-06-28T09:34:05.146Z,4.80
2023-06-28T09:37:08.181Z,5.63
2023-06-28T09:40:17.008Z,3.63
2023-06-28T09:43:19.721Z,6.23
2023-06-28T09:46:23.446Z,5.13
2023-06-28T09:49:28.028Z,5.20
2023-06-28T09:52:37.242Z,5.07
2023-06-28T09:55:41.582Z,7.83
2023-06-28T09:58:47.331Z,3.87
2023-06-28T10:01:53.968Z,9.43
2023-06-28T10:04:58.717Z,3.43
2023-06-28T10:08:13.503Z,4.13
2023-06-28T10:11:17.803Z,5.07
2023-06-28T10:14:22.658Z,3.67
2023-06-28T10:17:26.299Z,3.80
2023-06-28T10:20:31.137Z,5.07
2023-06-28T10:23:36.732Z,5.10
2023-06-28T10:26:39.879Z,4.97
2023-06-28T10:29:45.239Z,5.50
2023-06-28T10:32:48.371Z,4.93
2023-06-28T10:35:54.030Z,9.70
2023-06-28T10:38:56.727Z,4.97
2023-06-28T10:42:00.274Z,5.10
2023-06-28T10:45:04.364Z,5.67
2023-06-28T10:48:09.800Z,4.67
2023-06-28T10:51:21.814Z,5.90
2023-06-28T10:54:24.774Z,5.97
2023-06-28T10:57:38.801Z,5.53
2023-06-28T11:00:46.855Z,5.87
2023-06-28T11:03:49.626Z,4.37
2023-06-28T11:07:12.060Z,4.17
2023-06-28T11:10:18.441Z,6.23
2023-06-28T11:13:33.898Z,5.67
2023-06-28T11:16:37.818Z,6.30
2023-06-28T11:19:42.001Z,3.80
2023-06-28T11:22:53.341Z,5.77
2023-06-28T11:25:57.863Z,6.17
2023-06-28T11:29:00.665Z,3.87
2023-06-28T11:32:04.116Z,6.03
2023-06-28T11:35:10.180Z,4.00
2023-06-28T11:38:16.717Z,5.20
2023-06-28T11:41:19.637Z,5.07
2023-06-28T11:44:22.307Z,4.20
2023-06-28T11:47:28.471Z,3.50
2023-06-28T11:50:31.874Z,3.70
2023-06-28T11:53:35.975Z,4.37
2023-06-28T11:56:40.379Z,6.33
2023-06-28T11:59:51.921Z,4.17
2023-06-28T12:02:54.728Z,4.80
2023-06-28T12:05:58.045Z,5.03
2023-06-28T12:09:02.186Z,4.50
2023-06-28T12:12:06.857Z,6.10
2023-06-28T12:15:14.789Z,3.80
2023-06-28T12:18:20.666Z,4.00
2023-06-28T12:21:23.714Z,4.67
2023-06-28T12:24:28.060Z,8.63
2023-06-28T12:27:32.566Z,6.27
2023-06-28T12:30:35.379Z,5.00
2023-06-28T12:33:38.228Z,5.40
2023-06-28T12:36:43.723Z,5.43
2023-06-28T12:39:48.437Z,4.10
2023-06-28T12:43:21.451Z,7.83
2023-06-28T12:46:24.182Z,4.97
2023-06-28T12:49:41.202Z,6.97
2023-06-28T12:52:43.984Z,5.83
2023-06-28T12:55:50.404Z,5.53
2023-06-28T12:58:53.082Z,5.20
2023-06-28T13:01:55.884Z,5.03
2023-06-28T13:04:58.688Z,5.40
2023-06-28T13:08:04.463Z,4.50
2023-06-28T13:11:16.339Z,7.70
2023-06-28T13:14:21.186Z,3.97
2023-06-28T13:17:24.198Z,5.13
2023-06-28T13:20:28.943Z,4.57
2023-06-28T13:23:33.925Z,6.20
2023-06-28T13:26:37.998Z,7.60
2023-06-28T13:29:40.648Z,5.43
2023-06-28T13:32:46.618Z,4.73
2023-06-28T13:35:49.441Z,5.37
2023-06-28T13:38:52.309Z,8.20
2023-06-28T13:41:56.488Z,6.77
2023-06-28T13:44:59.269Z,4.93
2023-06-28T13:48:02.331Z,5.37
2023-06-28T13:51:05.391Z,6.03
2023-06-28T13:54:08.140Z,4.93
2023-06-28T13:57:15.373Z,6.23
2023-06-28T14:00:18.504Z,5.50
2023-06-28T14:03:21.304Z,7.33
2023-06-28T14:06:24.158Z,15.10
2023-06-28T14:09:27.542Z,9.97
2023-06-28T14:12:31.773Z,12.97
2023-06-28T14:15:34.631Z,6.27
2023-06-28T14:18:37.355Z,4.57
2023-06-28T14:21:40.031Z,6.70
2023-06-28T14:24:42.756Z,67.27
2023-06-28T14:27:47.127Z,5.87
2023-06-28T14:30:49.795Z,4.47
2023-06-28T14:33:52.548Z,16.87
2023-06-28T14:36:55.247Z,311.87
2023-06-28T14:39:58.007Z,37.60
2023-06-28T14:43:02.019Z,1999.90
2023-06-28T14:46:04.785Z,356.17
2023-06-28T14:49:08.347Z,1999.90
2023-06-28T14:52:11.110Z,1999.90
2023-06-28T14:55:13.822Z,784.53
2023-06-28T14:58:18.134Z,559.97
2023-06-28T15:01:21.405Z,1127.73
2023-06-28T15:04:24.162Z,1103.00
2023-06-28T15:07:27.201Z,16.97
2023-06-28T15:10:29.985Z,32.87
2023-06-28T15:13:34.025Z,7.30
2023-06-28T15:16:37.469Z,6.03
2023-06-28T15:19:40.362Z,9.27
2023-06-28T15:22:43.031Z,4.13
2023-06-28T15:25:45.995Z,3.07
2023-06-28T15:28:50.164Z,6.47
2023-06-28T15:31:52.854Z,3.43
2023-06-28T15:34:55.565Z,3.83
2023-06-28T15:37:58.656Z,6.37
2023-06-28T15:41:02.317Z,4.97
2023-06-28T15:44:06.534Z,3.80
2023-06-28T15:47:09.791Z,98.47
2023-06-28T15:50:12.789Z,5.40
2023-06-28T15:53:15.486Z,42.53
2023-06-28T15:56:18.130Z,14.47
2023-06-28T15:59:22.426Z,49.47
2023-06-28T16:02:25.302Z,10.57
2023-06-28T16:05:28.307Z,2.83
2023-06-28T16:08:31.231Z,31.90
2023-06-28T16:11:34.923Z,14.30
2023-06-28T16:14:39.501Z,5.13
2023-06-28T16:17:43.790Z,3.20
2023-06-28T16:20:46.673Z,2.87
2023-06-28T16:23:49.462Z,5.33
2023-06-28T16:26:52.558Z,17.50
2023-06-28T16:29:57.456Z,3.57
2023-06-28T16:33:00.366Z,5.40
2023-06-28T16:36:04.364Z,7.33
2023-06-28T16:39:07.153Z,1.93
2023-06-28T16:42:10.342Z,4.17
2023-06-28T16:45:14.603Z,3.23
2023-06-28T16:48:17.646Z,9.80
2023-06-28T16:51:21.117Z,3.60
2023-06-28T16:54:25.864Z,3.83
2023-06-28T16:57:28.895Z,19.80
2023-06-28T17:00:33.239Z,2.43
2023-06-28T17:03:40.306Z,11.00
2023-06-28T17:06:43.051Z,2.40
2023-06-28T17:09:46.088Z,21.27
2023-06-28T17:12:48.981Z,5.93
2023-06-28T17:15:53.619Z,5.73
2023-06-28T17:18:56.535Z,1999.90
2023-06-28T17:21:59.252Z,1999.90
2023-06-28T17:25:02.086Z,1514.83
2023-06-28T17:28:05.267Z,567.37
2023-06-28T17:31:09.366Z,32.17
2023-06-28T17:34:12.056Z,822.97
2023-06-28T17:37:14.816Z,2.93
2023-06-28T17:40:17.530Z,5.30
2023-06-28T17:43:20.446Z,7.40
2023-06-28T17:46:24.480Z,3.93
2023-06-28T17:49:27.208Z,3.57
2023-06-28T17:52:29.858Z,4.23
2023-06-28T17:55:34.761Z,2.70
2023-06-28T17:58:38.552Z,1.77
2023-06-28T18:01:42.709Z,3.17
2023-06-28T18:04:45.449Z,2.07
2023-06-28T18:07:50.284Z,2.90
2023-06-28T18:10:54.434Z,6.33
2023-06-28T18:13:57.111Z,1.83
2023-06-28T18:17:02.028Z,3.10
2023-06-28T18:20:05.639Z,3.50
2023-06-28T18:23:08.343Z,4.30
2023-06-28T18:26:11.023Z,2.47
2023-06-28T18:29:13.702Z,4.20
2023-06-28T18:32:17.734Z,2.10
2023-06-28T18:35:20.438Z,3.67
2023-06-28T18:38:25.562Z,3.37
2023-06-28T18:41:30.865Z,1.97
2023-06-28T18:44:44.279Z,4.00
2023-06-28T18:47:48.610Z,2.73
2023-06-28T18:50:54.542Z,1.50
2023-06-28T18:53:57.754Z,2.90
2023-06-28T18:57:00.460Z,2.60
2023-06-28T19:00:06.643Z,4.17
2023-06-28T19:03:13.126Z,4.97
2023-06-28T19:06:15.952Z,2.07
2023-06-28T19:09:18.649Z,3.47
2023-06-28T19:12:21.351Z,3.00
2023-06-28T19:15:24.730Z,4.23
2023-06-28T19:18:29.260Z,3.57
2023-06-28T19:21:32.241Z,3.67
2023-06-28T19:24:34.986Z,2.53
2023-06-28T19:27:37.720Z,3.23
2023-06-28T19:30:40.630Z,5.00
2023-06-28T19:33:44.848Z,3.17
2023-06-28T19:41:04.726Z,4.93
2023-06-28T19:44:07.567Z,2.70
2023-06-28T19:47:10.267Z,4.57
2023-06-28T19:50:14.353Z,4.20
2023-06-28T19:53:17.024Z,3.80
2023-06-28T19:56:20.954Z,4.97
2023-06-28T19:59:23.709Z,6.53
2023-06-28T20:02:26.508Z,3.53
2023-06-28T20:05:30.653Z,6.23
2023-06-28T20:08:33.889Z,2.83
2023-06-28T20:11:36.713Z,3.90
2023-06-28T20:14:39.552Z,3.27
2023-06-28T20:17:42.288Z,2.60
2023-06-28T20:20:47.007Z,3.37
2023-06-28T20:23:50.023Z,6.33
2023-06-28T20:26:53.872Z,3.40
2023-06-28T20:29:57.074Z,4.13
2023-06-28T20:32:59.790Z,4.90
2023-06-28T20:36:04.390Z,5.47
2023-06-28T20:39:07.093Z,5.23
2023-06-28T20:42:10.108Z,3.10
2023-06-28T20:45:12.826Z,2.93
2023-06-28T20:48:15.640Z,5.37
2023-06-28T20:51:21.092Z,4.03
2023-06-28T20:54:23.878Z,3.90
2023-06-28T20:57:26.952Z,3.50
2023-06-28T21:00:29.765Z,5.87
2023-06-28T21:03:32.614Z,5.17
2023-06-28T21:06:36.701Z,5.97
2023-06-28T21:09:43.927Z,5.03
2023-06-28T21:12:46.726Z,3.60
2023-06-28T21:15:49.682Z,3.63
2023-06-28T21:18:52.861Z,4.17
2023-06-28T21:21:56.978Z,4.27
2023-06-28T21:25:00.376Z,5.27
2023-06-28T21:28:03.928Z,4.57
2023-06-28T21:31:06.751Z,3.37
2023-06-28T21:34:09.517Z,5.30
2023-06-28T21:37:13.869Z,4.77
2023-06-28T21:40:16.692Z,6.27
2023-06-28T21:43:19.825Z,5.67
2023-06-28T21:46:22.606Z,4.50
2023-06-28T21:49:25.465Z,3.80
2023-06-28T21:52:29.533Z,2.80
2023-06-28T21:55:32.194Z,3.73
2023-06-28T21:58:37.689Z,4.30
2023-06-28T22:01:40.612Z,2.87
2023-06-28T22:04:43.434Z,4.77
2023-06-28T22:07:50.129Z,3.50
2023-06-28T22:10:55.650Z,2.60
2023-06-28T22:14:04.945Z,4.63
2023-06-28T22:17:07.729Z,3.60
2023-06-28T22:20:12.111Z,6.00
2023-06-28T22:23:17.458Z,7.60
2023-06-28T22:26:22.173Z,5.23
2023-06-28T22:29:24.913Z,3.73
2023-06-28T22:32:27.684Z,3.60
2023-06-28T22:35:30.399Z,2.43
2023-06-28T22:38:47.748Z,3.17
2023-06-28T22:41:54.403Z,6.90
2023-06-28T22:44:58.038Z,3.97
2023-06-28T22:48:03.444Z,3.03
2023-06-28T22:51:06.979Z,6.73
2023-06-28T22:54:15.276Z,4.17
2023-06-28T22:57:18.017Z,5.37
2023-06-28T23:00:20.897Z,4.87
2023-06-28T23:03:25.354Z,3.70
2023-06-28T23:06:28.320Z,4.07
2023-06-28T23:09:32.363Z,5.97
2023-06-28T23:12:38.340Z,3.77
2023-06-28T23:15:41.242Z,4.53
2023-06-28T23:18:48.283Z,2.70
2023-06-28T23:21:50.944Z,4.57
2023-06-28T23:24:55.550Z,5.60
2023-06-28T23:27:58.762Z,6.30
2023-06-28T23:31:02.156Z,4.20
2023-06-28T23:34:05.037Z,4.37
2023-06-28T23:37:08.415Z,5.57
2023-06-28T23:40:14.154Z,4.57
2023-06-28T23:43:17.269Z,4.93
2023-06-28T23:46:19.909Z,3.67
2023-06-28T23:49:24.095Z,5.60
2023-06-28T23:52:30.245Z,4.37
2023-06-28T23:55:35.194Z,5.27
2023-06-28T23:58:38.806Z,4.17
